Time;durP1;ratioP1;P1;durP2;ratioP2;P2;SDS_P1;SDS_P2;PMS_P1;PMS_P2;Temp;Humidity;BMP_temperature;BMP_pressure;BME280_temperature;BME280_humidity;BME280_pressure;Samples;Min_cycle;Max_cycle;Signal;HPM_P1;HPM_P2
2022/11/16 00:01:23;;;;;;;9.60;7.95;;;;;;;13.06;87.65;99582.66;3616277;39;20053;-64
2022/11/16 00:03:52;;;;;;;9.50;8.23;;;;;;;13.05;87.42;99580.97;3613358;39;20051;-64
2022/11/16 00:06:20;;;;;;;8.85;7.93;;;;;;;13.06;87.86;99580.81;3616191;39;20056;-65
2022/11/16 00:11:38;;;;;;;9.35;8.43;;;;;;;13.05;87.79;99583.66;3614117;39;20061;-64
2022/11/16 00:14:05;;;;;;;9.23;7.75;;;;;;;13.03;87.96;99594.59;3616648;39;20336;-64
2022/11/16 00:16:32;;;;;;;10.05;9.05;;;;;;;13.04;88.41;99592.75;3613812;39;20046;-64
2022/11/16 00:19:03;;;;;;;9.63;8.68;;;;;;;13.02;88.38;99590.19;3611352;39;20058;-64
2022/11/16 00:21:30;;;;;;;10.75;8.45;;;;;;;12.88;88.38;99569.03;3612759;39;20376;-63
2022/11/16 00:23:56;;;;;;;10.70;8.90;;;;;;;13.00;88.67;99592.16;3617499;39;20054;-64
2022/11/16 00:26:23;;;;;;;9.52;8.30;;;;;;;12.95;88.95;99594.44;3616817;39;20046;-65
2022/11/16 00:28:52;;;;;;;11.68;9.25;;;;;;;13.00;88.97;99590.34;3617594;39;20094;-64
2022/11/16 00:31:18;;;;;;;10.48;8.60;;;;;;;13.01;89.05;99593.88;3616288;39;20131;-65
2022/11/16 00:33:44;;;;;;;9.60;8.52;;;;;;;12.83;88.92;99557.81;3615317;39;20055;-65
2022/11/16 00:36:12;;;;;;;9.82;8.82;;;;;;;13.01;88.85;99572.31;3611753;39;20408;-65
2022/11/16 00:38:39;;;;;;;11.68;8.70;;;;;;;13.00;88.88;99565.19;3616652;39;20051;-64
2022/11/16 00:41:07;;;;;;;9.70;8.60;;;;;;;13.00;88.73;99562.50;3619121;39;20067;-66
2022/11/16 00:43:34;;;;;;;9.50;8.55;;;;;;;12.93;89.06;99547.88;3618794;39;20058;-64
2022/11/16 00:45:59;;;;;;;9.38;8.45;;;;;;;12.97;89.23;99538.50;3615010;39;20055;-64
2022/11/16 00:48:25;;;;;;;11.02;9.20;;;;;;;12.97;89.33;99546.59;3619473;39;20077;-65
2022/11/16 00:50:51;;;;;;;8.43;7.65;;;;;;;12.94;89.51;99557.66;3617940;39;20056;-65
2022/11/16 00:53:20;;;;;;;10.20;8.43;;;;;;;12.96;89.21;99579.97;3617670;39;20066;-65
2022/11/16 00:55:47;;;;;;;10.43;8.27;;;;;;;12.49;89.44;99497.03;3615552;39;20046;-65
2022/11/16 00:58:14;;;;;;;9.70;8.43;;;;;;;12.97;89.32;99576.25;3616893;39;20403;-65
2022/11/16 01:00:41;;;;;;;8.52;7.72;;;;;;;12.81;nan;99549.00;3617572;39;20096;-64
2022/11/16 01:03:07;;;;;;;9.13;7.90;;;;;;;12.98;89.48;99569.88;3617985;39;20965;-64
2022/11/16 01:05:32;;;;;;;10.45;8.40;;;;;;;12.98;89.93;99564.50;3620480;39;20058;-64
2022/11/16 01:07:58;;;;;;;11.73;8.30;;;;;;;12.99;89.67;99563.50;3616008;39;20328;-64
2022/11/16 01:10:26;;;;;;;9.93;8.07;;;;;;;13.01;89.91;99564.22;3607177;39;20052;-64
2022/11/16 01:12:54;;;;;;;8.80;7.72;;;;;;;13.01;89.80;99556.13;3614927;39;20162;-64
2022/11/16 01:15:24;;;;;;;8.50;7.60;;;;;;;13.01;89.49;99550.72;3617548;39;20119;-65
2022/11/16 01:17:53;;;;;;;9.40;8.45;;;;;;;13.01;89.68;99546.19;3615219;39;20063;-64
2022/11/16 01:20:24;;;;;;;7.95;7.15;;;;;;;13.01;89.74;99545.34;3615945;39;20119;-65
2022/11/16 01:22:51;;;;;;;8.00;7.20;;;;;;;13.03;89.57;99548.72;3616722;39;20051;-64
2022/11/16 01:25:16;;;;;;;10.63;7.47;;;;;;;13.04;89.81;99546.91;3618542;39;20060;-64
2022/11/16 01:27:43;;;;;;;8.25;7.32;;;;;;;13.05;90.13;99544.03;3619922;39;20669;-65
2022/11/16 01:30:12;;;;;;;7.70;6.90;;;;;;;12.80;89.51;99496.06;3613994;39;20124;-64
2022/11/16 01:32:38;;;;;;;9.68;7.32;;;;;;;13.03;89.59;99540.63;3616703;39;20059;-64
2022/11/16 01:35:05;;;;;;;9.50;7.72;;;;;;;12.91;89.83;99510.28;3615149;39;20073;-64
2022/11/16 01:37:32;;;;;;;8.05;7.28;;;;;;;13.07;90.10;99538.53;3619947;39;20050;-64
2022/11/16 01:39:58;;;;;;;8.95;7.20;;;;;;;13.06;89.84;99534.94;3616189;39;21673;-64
2022/11/16 01:42:28;;;;;;;8.75;7.38;;;;;;;13.09;89.54;99533.81;3619383;39;20147;-64
2022/11/16 01:44:58;;;;;;;7.88;7.10;;;;;;;13.11;89.80;99534.53;3616037;39;20055;-64
2022/11/16 01:47:24;;;;;;;8.63;7.28;;;;;;;13.08;89.64;99524.88;3616812;39;20393;-64
2022/11/16 01:50:01;;;;;;;10.00;8.30;;;;;;;13.13;89.90;99537.91;3615303;39;20053;-64
2022/11/16 01:52:33;;;;;;;10.05;7.57;;;;;;;13.14;89.79;99529.69;3616304;39;20498;-64
2022/11/16 01:55:02;;;;;;;8.63;7.82;;;;;;;13.14;89.52;99539.66;3617823;39;20066;-64
2022/11/16 01:57:41;;;;;;;8.43;7.57;;;;;;;13.13;89.86;99536.09;3616783;39;20258;-64
2022/11/16 02:00:11;;;;;;;9.02;7.88;;;;;;;13.15;89.65;99536.78;3617102;39;20860;-65
2022/11/16 02:02:36;;;;;;;8.90;8.05;;;;;;;13.12;89.61;99531.69;3613784;39;20075;-64
2022/11/16 02:05:04;;;;;;;9.68;8.57;;;;;;;13.15;89.33;99528.69;3612642;39;22141;-64
2022/11/16 02:12:07;;;;;;;9.50;7.93;;;;;;;13.11;89.79;99523.75;3598204;39;20295;-64
2022/11/16 02:14:47;;;;;;;8.87;7.97;;;;;;;13.11;90.05;99521.91;3575627;39;20051;-64
2022/11/16 02:17:52;;;;;;;11.07;7.85;;;;;;;13.11;89.69;99524.59;3620951;39;20058;-64
2022/11/16 02:20:43;;;;;;;9.35;8.07;;;;;;;13.12;89.58;99520.88;3616071;39;20102;-64
2022/11/16 02:23:43;;;;;;;9.13;8.23;;;;;;;13.15;89.96;99520.59;3616864;39;20054;-63
2022/11/16 02:26:17;;;;;;;10.32;8.40;;;;;;;13.13;89.53;99522.63;3617626;39;20063;-64
2022/11/16 02:29:34;;;;;;;10.10;8.50;;;;;;;13.14;89.83;99524.31;3619508;39;20050;-66
2022/11/16 02:32:12;;;;;;;9.45;8.13;;;;;;;13.15;89.78;99517.91;3600243;39;20100;-64
2022/11/16 02:35:06;;;;;;;9.25;8.27;;;;;;;13.14;89.55;99512.66;3616762;39;20123;-64
2022/11/16 02:37:43;;;;;;;10.13;8.10;;;;;;;13.16;89.64;99524.16;3613516;39;20086;-64
2022/11/16 02:40:14;;;;;;;9.43;7.75;;;;;;;13.14;89.47;99529.69;3615221;39;20046;-64
2022/11/16 02:43:06;;;;;;;7.38;6.53;;;;;;;13.13;89.50;99538.81;3616097;39;20050;-64
2022/11/16 02:45:39;;;;;;;8.75;6.40;;;;;;;12.94;88.47;99498.31;3616859;39;20052;-64
2022/11/16 02:48:19;;;;;;;7.45;6.07;;;;;;;12.86;88.66;99488.25;3612810;39;20349;-64
2022/11/16 02:50:47;;;;;;;7.00;6.32;;;;;;;13.12;88.02;99553.25;3616407;39;20095;-64
2022/11/16 02:53:14;;;;;;;7.10;6.38;;;;;;;13.14;88.10;99542.34;3616288;39;20133;-66
2022/11/16 02:55:40;;;;;;;7.68;6.50;;;;;;;13.13;87.70;99544.19;3614984;39;20448;-67
2022/11/16 02:58:13;;;;;;;7.88;6.82;;;;;;;13.14;87.58;99539.66;3616846;39;20285;-66
2022/11/16 03:00:59;;;;;;;7.45;6.75;;;;;;;13.12;87.74;99537.06;3616984;39;20050;-67
2022/11/16 03:03:45;;;;;;;9.70;6.15;;;;;;;13.09;86.94;99536.50;3605654;39;20126;-65
2022/11/16 03:06:28;;;;;;;5.72;5.22;;;;;;;13.02;86.60;99526.28;3614775;39;20377;-64
2022/11/16 03:09:10;;;;;;;5.93;4.88;;;;;;;13.00;86.48;99535.50;3614680;39;20845;-64
2022/11/16 03:12:00;;;;;;;5.72;4.43;;;;;;;12.98;86.66;99534.81;3614589;39;20082;-64
2022/11/16 03:14:38;;;;;;;5.28;3.90;;;;;;;12.93;85.88;99539.78;3616122;39;20035;-63
2022/11/16 03:17:13;;;;;;;4.53;3.97;;;;;;;12.91;85.76;99539.09;3615875;39;20428;-63
2022/11/16 03:19:50;;;;;;;4.55;3.72;;;;;;;12.75;85.90;99518.06;3617807;39;20051;-63
2022/11/16 03:22:49;;;;;;;4.35;3.10;;;;;;;12.53;85.86;99503.00;3618132;39;20224;-63
2022/11/16 03:25:21;;;;;;;3.63;2.75;;;;;;;12.72;85.68;99546.16;3616458;39;20043;-63
2022/11/16 03:28:12;;;;;;;2.92;2.63;;;;;;;12.68;85.70;99549.25;3614153;39;20318;-63
2022/11/16 03:30:51;;;;;;;4.63;2.60;;;;;;;12.63;85.69;99555.09;3614205;39;20438;-63
2022/11/16 03:33:44;;;;;;;4.05;2.55;;;;;;;12.53;85.87;99540.75;3614792;39;20057;-63
2022/11/16 03:36:37;;;;;;;3.75;2.80;;;;;;;12.54;86.20;99559.47;3613491;39;20062;-65
2022/11/16 03:39:22;;;;;;;3.60;2.80;;;;;;;12.49;86.55;99560.88;3616399;39;20235;-63
2022/11/16 03:41:49;;;;;;;3.35;3.05;;;;;;;12.43;86.63;99547.94;3612690;39;20681;-63
2022/11/16 03:44:19;;;;;;;3.72;2.85;;;;;;;12.47;86.44;99552.09;3613915;39;20054;-62
2022/11/16 03:46:47;;;;;;;3.28;3.05;;;;;;;12.46;86.62;99558.44;3612231;39;20053;-63
2022/11/16 03:49:12;;;;;;;4.25;3.08;;;;;;;12.42;86.89;99565.09;3617068;39;20066;-63
2022/11/16 03:51:38;;;;;;;5.25;3.38;;;;;;;12.41;86.21;99574.19;3613822;39;20416;-63
2022/11/16 03:54:04;;;;;;;3.40;3.10;;;;;;;12.38;86.68;99569.94;3617547;39;20089;-63
2022/11/16 03:56:30;;;;;;;3.50;3.20;;;;;;;12.30;86.40;99573.31;3613444;39;20495;-63
2022/11/16 03:58:56;;;;;;;3.40;3.10;;;;;;;12.28;86.59;99585.22;3613231;39;20058;-63
2022/11/16 04:01:21;;;;;;;4.03;3.13;;;;;;;12.25;86.18;99583.63;3612962;39;20158;-62
2022/11/16 04:03:47;;;;;;;3.20;2.65;;;;;;;12.21;86.27;99576.81;3615633;39;20385;-63
2022/11/16 04:25:50;;;;;;;4.55;2.42;;;;;;;12.03;85.93;99591.91;3611127;39;20050;-65
2022/11/16 04:28:24;;;;;;;3.97;2.33;;;;;;;11.97;86.22;99593.28;3612572;39;20051;-64
2022/11/16 04:39:13;;;;;;;4.40;2.80;;;;;;;11.89;86.06;99592.25;3614308;39;20085;-64
2022/11/16 04:44:23;;;;;;;4.45;2.90;;;;;;;11.85;85.99;99600.59;3615692;39;20326;-64
2022/11/16 04:47:06;;;;;;;6.45;2.70;;;;;;;11.82;85.91;99599.97;3616425;39;20134;-64
2022/11/16 04:49:32;;;;;;;;;;;;;;;11.78;86.63;99612.00;3614384;39;20059;-64
2022/11/16 04:51:58;;;;;;;3.03;2.60;;;;;;;11.78;86.20;99620.09;3615204;39;20016;-64
2022/11/16 04:54:24;;;;;;;3.78;3.08;;;;;;;11.76;86.39;99622.91;3613496;39;20072;-63
2022/11/16 04:56:50;;;;;;;3.75;3.20;;;;;;;11.71;86.32;99621.59;3614843;39;20058;-64
2022/11/16 04:59:16;;;;;;;6.07;3.47;;;;;;;11.71;86.32;99625.16;3615610;39;20428;-64
2022/11/16 05:04:26;;;;;;;3.75;3.20;;;;;;;11.68;86.37;99624.56;3613312;39;20057;-64
2022/11/16 05:06:51;;;;;;;5.45;3.10;;;;;;;11.66;86.56;99630.06;3615070;39;20066;-63
2022/11/16 05:09:17;;;;;;;5.00;3.28;;;;;;;11.63;86.63;99624.94;3618478;39;20053;-63
2022/11/16 05:11:42;;;;;;;6.45;3.35;;;;;;;11.58;86.45;99625.34;3619515;39;20058;-64
2022/11/16 05:14:10;;;;;;;6.75;2.90;;;;;;;11.56;85.97;99624.63;3616316;39;20062;-63
2022/11/16 05:16:36;;;;;;;9.10;3.15;;;;;;;11.55;86.04;99627.44;3616312;39;20317;-64
2022/11/16 05:21:46;;;;;;;5.78;3.22;;;;;;;11.48;86.03;99631.63;3616435;39;20120;-64
2022/11/16 05:26:56;;;;;;;8.35;3.28;;;;;;;11.39;84.94;99623.38;3617132;39;20058;-64
2022/11/16 05:29:22;;;;;;;6.40;3.10;;;;;;;11.34;85.64;99620.19;3619064;39;20058;-64
2022/11/16 05:31:48;;;;;;;6.00;3.25;;;;;;;11.29;85.61;99614.38;3613784;39;20073;-64
2022/11/16 05:34:13;;;;;;;5.05;3.45;;;;;;;11.19;85.47;99602.66;3617455;39;20325;-63
2022/11/16 05:36:39;;;;;;;17.33;9.93;;;;;;;11.20;85.54;99615.13;3616724;39;20051;-64
2022/11/16 05:39:04;;;;;;;10.18;5.43;;;;;;;11.19;85.85;99617.94;3620278;39;20147;-64
2022/11/16 05:41:30;;;;;;;5.93;3.80;;;;;;;11.12;85.80;99622.97;3619309;39;20059;-64
2022/11/16 05:43:56;;;;;;;5.82;3.63;;;;;;;11.07;86.12;99619.84;3616980;39;20054;-64
2022/11/16 05:46:24;;;;;;;7.88;4.15;;;;;;;10.95;85.67;99616.31;3619038;39;20058;-63
2022/11/16 05:48:50;;;;;;;8.15;3.85;;;;;;;10.69;85.94;99578.16;3616810;39;20051;-64
2022/11/16 05:51:16;;;;;;;8.48;3.97;;;;;;;10.92;86.00;99633.56;3617816;39;20046;-64
2022/11/16 05:53:43;;;;;;;4.28;3.80;;;;;;;10.88;86.88;99632.13;3620204;39;20118;-64
2022/11/16 05:56:10;;;;;;;6.85;3.72;;;;;;;10.84;86.31;99636.00;3617194;39;20429;-64
2022/11/16 05:58:36;;;;;;;8.30;4.38;;;;;;;10.72;85.96;99625.41;3619511;39;20416;-64
2022/11/16 06:01:02;;;;;;;8.70;3.83;;;;;;;10.74;85.93;99643.13;3619258;39;20271;-64
2022/11/16 06:03:31;;;;;;;9.48;4.03;;;;;;;10.55;86.62;99618.72;3617146;39;20428;-64
2022/11/16 06:05:57;;;;;;;5.35;3.97;;;;;;;10.64;86.56;99637.66;3619846;39;20051;-64
2022/11/16 06:08:23;;;;;;;7.53;4.38;;;;;;;10.64;87.09;99650.22;3612223;39;20381;-63
2022/11/16 06:10:49;;;;;;;5.97;4.00;;;;;;;10.61;87.07;99645.09;3618365;39;20054;-64
2022/11/16 06:13:15;;;;;;;8.35;4.13;;;;;;;10.59;87.65;99649.75;3619153;39;20337;-63
2022/11/16 06:15:41;;;;;;;8.63;4.50;;;;;;;10.56;87.50;99653.56;3618815;39;20454;-64
2022/11/16 06:18:08;;;;;;;8.20;4.43;;;;;;;10.49;86.86;99644.25;3615556;39;20098;-64
2022/11/16 06:20:36;;;;;;;6.75;5.03;;;;;;;10.50;86.94;99647.78;3620115;39;20123;-63
2022/11/16 06:23:02;;;;;;;8.43;4.80;;;;;;;10.47;87.18;99646.22;3614546;39;20055;-63
2022/11/16 06:25:29;;;;;;;8.60;4.68;;;;;;;10.43;87.79;99658.19;3613921;39;20069;-63
2022/11/16 06:27:55;;;;;;;6.03;4.47;;;;;;;10.43;87.27;99668.94;3620628;39;20042;-64
2022/11/16 06:30:21;;;;;;;9.38;5.35;;;;;;;10.40;86.91;99672.75;3619344;39;20057;-64
2022/11/16 06:32:47;;;;;;;7.57;4.30;;;;;;;10.37;87.01;99675.66;3616463;39;20083;-63
2022/11/16 06:35:12;;;;;;;8.85;4.97;;;;;;;10.31;86.74;99676.16;3614618;39;20397;-64
2022/11/16 06:37:38;;;;;;;11.40;5.30;;;;;;;10.31;87.55;99678.00;3618900;39;20051;-64
2022/11/16 06:40:05;;;;;;;8.95;5.68;;;;;;;10.25;87.32;99665.00;3617019;39;20059;-64
2022/11/16 06:42:30;;;;;;;9.40;4.93;;;;;;;10.24;87.06;99674.88;3615935;39;21019;-63
2022/11/16 06:44:56;;;;;;;9.77;4.95;;;;;;;10.24;86.97;99669.50;3618597;39;20114;-64
2022/11/16 06:47:21;;;;;;;8.13;4.22;;;;;;;10.22;87.32;99671.47;3615127;39;20050;-62
2022/11/16 06:49:47;;;;;;;9.13;3.92;;;;;;;10.17;87.16;99673.66;3618322;39;20059;-62
2022/11/16 06:52:13;;;;;;;7.47;3.80;;;;;;;10.21;87.82;99680.47;3602453;39;20051;-62
2022/11/16 06:54:38;;;;;;;8.35;3.80;;;;;;;10.20;87.07;99678.78;3616367;39;20046;-62
2022/11/16 06:57:04;;;;;;;9.25;3.58;;;;;;;10.18;87.14;99691.47;3618305;39;20293;-62
2022/11/16 06:59:29;;;;;;;9.32;4.30;;;;;;;10.14;86.95;99681.94;3617992;39;20054;-63
2022/11/16 07:01:55;;;;;;;8.75;3.55;;;;;;;10.15;87.78;99686.38;3617516;39;20115;-63
2022/11/16 07:04:21;;;;;;;9.68;4.10;;;;;;;10.07;87.25;99672.66;3612799;39;20039;-63
2022/11/16 07:06:46;;;;;;;8.88;4.00;;;;;;;10.12;87.47;99692.81;3617151;39;20059;-65
2022/11/16 07:09:15;;;;;;;9.20;4.45;;;;;;;10.12;87.28;99694.66;3619931;39;20061;-62
2022/11/16 07:11:40;;;;;;;10.90;4.32;;;;;;;10.10;87.36;99696.59;3620076;39;20057;-62
2022/11/16 07:14:06;;;;;;;6.30;3.88;;;;;;;10.08;87.19;99695.84;3616404;39;20054;-62
2022/11/16 07:16:34;;;;;;;7.38;4.70;;;;;;;10.07;87.42;99705.75;3615267;39;20058;-62
2022/11/16 07:19:01;;;;;;;9.15;4.63;;;;;;;10.05;86.92;99705.00;3614229;39;20050;-63
2022/11/16 07:21:26;;;;;;;12.00;5.53;;;;;;;10.07;87.50;99710.25;3614030;39;21426;-64
2022/11/16 07:23:53;;;;;;;9.93;5.95;;;;;;;10.07;87.13;99711.09;3615403;39;20445;-65
2022/11/16 07:26:20;;;;;;;10.98;6.00;;;;;;;9.80;87.38;99665.81;3616320;39;20095;-62
2022/11/16 07:28:45;;;;;;;12.73;6.70;;;;;;;10.00;87.30;99700.00;3616018;39;20047;-62
2022/11/16 07:31:14;;;;;;;12.55;5.97;;;;;;;10.07;87.68;99718.31;3617142;39;20221;-62
2022/11/16 07:33:39;;;;;;;13.82;7.35;;;;;;;10.08;87.18;99715.50;3618477;39;20058;-63
2022/11/16 07:36:09;;;;;;;11.57;6.35;;;;;;;9.99;87.33;99703.66;3617386;39;20325;-63
2022/11/16 07:38:35;;;;;;;10.43;6.50;;;;;;;10.12;87.87;99724.19;3618727;39;20119;-62
2022/11/16 07:41:04;;;;;;;14.65;7.38;;;;;;;10.13;86.77;99725.91;3617935;39;20047;-62
2022/11/16 07:43:33;;;;;;;14.10;7.40;;;;;;;10.12;86.79;99719.69;3618492;39;20070;-62
2022/11/16 07:46:08;;;;;;;15.18;6.90;;;;;;;10.00;86.99;99694.63;3619611;39;20042;-62
2022/11/16 07:48:34;;;;;;;9.73;6.22;;;;;;;10.17;86.76;99728.22;3617854;39;20058;-62
2022/11/16 07:51:06;;;;;;;13.73;6.47;;;;;;;10.20;86.95;99733.34;3618150;39;20054;-63
2022/11/16 07:53:33;;;;;;;15.60;5.72;;;;;;;10.19;86.60;99737.00;3620595;39;20126;-62
2022/11/16 07:56:00;;;;;;;10.18;5.68;;;;;;;9.87;86.76;99677.75;3619128;39;20063;-63
2022/11/16 07:58:34;;;;;;;8.52;5.97;;;;;;;10.25;86.70;99737.53;3618916;39;20107;-63
2022/11/16 08:01:11;;;;;;;;;;;;;;;10.29;86.40;99744.38;3621115;39;20404;-64
2022/11/16 08:03:39;;;;;;;14.10;6.00;;;;;;;10.31;86.67;99745.13;3616541;39;19934;-63
2022/11/16 08:06:15;;;;;;;10.82;5.05;;;;;;;10.32;86.39;99741.47;3617610;39;20065;-62
2022/11/16 08:08:41;;;;;;;8.40;4.53;;;;;;;10.28;86.15;99735.47;3605600;39;20297;-62
2022/11/16 08:11:11;;;;;;;13.25;5.88;;;;;;;10.39;86.07;99751.59;3616812;39;20343;-61
2022/11/16 08:13:39;;;;;;;12.40;4.28;;;;;;;10.42;85.46;99742.44;3616873;39;20440;-64
2022/11/16 08:16:13;;;;;;;10.00;3.85;;;;;;;10.38;84.84;99743.69;3615974;39;20260;-62
2022/11/16 08:18:41;;;;;;;12.43;3.75;;;;;;;10.43;85.30;99753.09;3616634;39;20066;-62
2022/11/16 08:21:11;;;;;;;10.00;3.75;;;;;;;10.47;85.50;99758.22;3616000;39;20055;-62
2022/11/16 08:23:39;;;;;;;12.57;3.67;;;;;;;10.54;85.17;99756.75;3616756;39;20095;-62
2022/11/16 08:26:09;;;;;;;8.48;3.30;;;;;;;10.58;84.72;99751.00;3616750;39;20078;-62
2022/11/16 08:28:36;;;;;;;7.28;3.25;;;;;;;10.62;84.57;99759.69;3612616;39;20409;-62
2022/11/16 08:31:29;;;;;;;9.68;3.40;;;;;;;10.67;83.97;99752.13;3615497;39;20047;-62
2022/11/16 08:33:55;;;;;;;8.90;3.30;;;;;;;10.70;83.85;99743.81;3616415;39;20154;-63
2022/11/16 08:36:21;;;;;;;8.60;3.00;;;;;;;10.77;83.43;99747.72;3616574;39;20054;-64
2022/11/16 08:38:50;;;;;;;6.50;2.40;;;;;;;10.83;82.92;99746.38;3616018;39;20051;-63
2022/11/16 08:41:17;;;;;;;6.88;2.88;;;;;;;10.83;83.48;99747.22;3615522;39;20078;-63
2022/11/16 08:43:46;;;;;;;11.45;3.47;;;;;;;10.85;82.62;99747.13;3617133;39;20055;-62
2022/11/16 08:46:12;;;;;;;15.02;2.95;;;;;;;10.88;82.27;99747.72;3619527;39;20050;-63
2022/11/16 08:48:38;;;;;;;7.47;2.70;;;;;;;10.90;82.29;99756.50;3618600;39;20129;-64
2022/11/16 08:51:14;;;;;;;11.32;2.88;;;;;;;10.91;82.91;99760.91;3619039;39;20047;-64
2022/11/16 08:53:40;;;;;;;11.98;3.35;;;;;;;10.69;82.31;99718.78;3617974;39;20063;-63
2022/11/16 08:56:12;;;;;;;12.10;3.20;;;;;;;10.95;82.33;99764.22;3618976;39;20388;-64
2022/11/16 08:58:38;;;;;;;6.53;2.40;;;;;;;10.96;82.38;99767.75;3620246;39;20055;-64
2022/11/16 09:01:17;;;;;;;8.48;2.83;;;;;;;10.96;81.83;99751.63;3619215;39;20351;-63
2022/11/16 09:03:44;;;;;;;9.70;2.92;;;;;;;11.08;81.55;99761.38;3615940;39;20119;-63
2022/11/16 09:06:12;;;;;;;6.45;2.40;;;;;;;11.08;81.11;99761.38;3617643;39;20143;-63
2022/11/16 09:08:41;;;;;;;10.73;3.03;;;;;;;11.14;80.87;99768.97;3619274;39;20404;-63
2022/11/16 09:11:11;;;;;;;6.95;2.22;;;;;;;11.21;80.74;99766.63;3618222;39;20051;-64
2022/11/16 09:13:37;;;;;;;10.45;2.60;;;;;;;11.02;80.07;99727.78;3615638;39;20123;-63
2022/11/16 09:16:04;;;;;;;8.52;2.03;;;;;;;11.28;79.93;99765.97;3616993;39;20386;-64
2022/11/16 09:18:31;;;;;;;9.30;2.10;;;;;;;11.32;79.52;99762.09;3618705;39;20394;-63
2022/11/16 09:20:57;;;;;;;17.42;6.25;;;;;;;11.42;79.97;99770.25;3618855;39;20039;-63
2022/11/16 09:23:23;;;;;;;9.30;3.03;;;;;;;11.49;79.33;99770.59;3620160;39;20107;-63
2022/11/16 09:25:49;;;;;;;11.40;2.42;;;;;;;11.62;79.20;99768.59;3617097;39;20055;-63
2022/11/16 09:28:16;;;;;;;9.25;2.00;;;;;;;11.80;78.31;99776.97;3614896;39;20058;-64
2022/11/16 09:30:44;;;;;;;6.47;2.17;;;;;;;11.89;77.62;99768.13;3617147;39;20390;-63
2022/11/16 09:33:09;;;;;;;9.05;2.25;;;;;;;12.15;76.69;99774.03;3608608;39;20062;-63
2022/11/16 09:35:35;;;;;;;14.13;5.50;;;;;;;12.37;75.96;99772.16;3617132;39;20046;-63
2022/11/16 09:38:01;;;;;;;17.10;7.57;;;;;;;12.54;75.24;99768.88;3618403;39;20344;-64
2022/11/16 09:40:37;;;;;;;16.02;6.88;;;;;;;12.71;74.30;99768.25;3615144;39;20255;-64
2022/11/16 09:43:47;;;;;;;11.07;2.55;;;;;;;12.92;73.43;99779.00;3617603;39;20059;-64
2022/11/16 09:46:33;;;;;;;10.35;2.33;;;;;;;13.13;72.38;99770.84;3618046;39;20382;-65
2022/11/16 09:49:17;;;;;;;8.60;2.38;;;;;;;13.30;70.67;99776.59;3616793;39;20043;-64
2022/11/16 09:51:50;;;;;;;6.00;1.95;;;;;;;13.38;71.34;99779.44;3610449;39;20060;-64
2022/11/16 09:54:27;;;;;;;11.20;2.58;;;;;;;13.51;70.79;99785.47;3616328;39;20058;-64
2022/11/16 09:57:00;;;;;;;6.50;1.85;;;;;;;13.65;69.90;99784.19;3617257;39;20466;-64
2022/11/16 09:59:42;;;;;;;;;;;;;;;13.80;69.68;99784.66;3617130;39;20382;-64
2022/11/16 10:02:36;;;;;;;8.68;2.22;;;;;;;13.98;68.37;99780.22;3620841;39;19931;-64
2022/11/16 10:05:18;;;;;;;9.63;2.13;;;;;;;14.16;66.86;99786.63;3623938;39;20091;-64
2022/11/16 10:08:12;;;;;;;4.95;1.90;;;;;;;14.36;67.71;99775.78;3619177;39;20043;-64
2022/11/16 10:11:03;;;;;;;7.47;1.80;;;;;;;14.61;65.26;99787.88;3595043;39;20043;-64
2022/11/16 10:13:57;;;;;;;7.85;2.08;;;;;;;14.86;64.46;99789.06;3615654;39;20106;-64
2022/11/16 10:17:00;;;;;;;;;;;;;;;14.98;64.12;99781.63;3616769;39;20072;-64
2022/11/16 10:19:32;;;;;;;8.38;2.22;;;;;;;15.13;63.38;99781.97;3617550;39;20312;-63
2022/11/16 10:22:39;;;;;;;3.53;1.27;;;;;;;15.16;62.13;99779.84;3615769;39;20053;-64
2022/11/16 10:25:34;;;;;;;7.13;2.20;;;;;;;15.22;62.44;99771.13;3616346;39;20051;-64
2022/11/16 10:28:06;;;;;;;11.75;2.10;;;;;;;15.45;62.22;99776.97;3611639;39;20051;-64
2022/11/16 10:30:47;;;;;;;5.85;1.70;;;;;;;15.50;60.90;99781.91;3616494;39;20116;-64
2022/11/16 10:33:23;;;;;;;6.35;1.92;;;;;;;15.60;60.00;99776.44;3618905;39;20054;-64
2022/11/16 10:35:54;;;;;;;4.15;1.75;;;;;;;15.63;59.18;99776.13;3616036;39;20054;-64
2022/11/16 10:38:27;;;;;;;5.20;1.70;;;;;;;15.68;59.14;99777.41;3615448;39;20051;-64
2022/11/16 10:41:13;;;;;;;5.18;1.80;;;;;;;15.73;58.66;99766.97;3613801;39;20051;-64
2022/11/16 10:43:42;;;;;;;8.98;2.20;;;;;;;15.73;59.63;99749.84;3616522;39;20071;-64
2022/11/16 10:46:31;;;;;;;8.90;2.20;;;;;;;15.97;57.28;99785.31;3615825;39;20059;-64
2022/11/16 10:49:06;;;;;;;8.63;2.20;;;;;;;16.04;58.09;99779.28;3622191;39;20051;-64
2022/11/16 10:51:31;;;;;;;6.45;2.08;;;;;;;16.14;58.26;99769.19;3615719;39;20120;-64
2022/11/16 10:53:57;;;;;;;7.68;1.90;;;;;;;16.27;57.74;99766.06;3615384;39;20373;-64
2022/11/16 10:56:36;;;;;;;5.90;2.03;;;;;;;14.88;56.86;99580.59;3615958;39;20050;-64
2022/11/16 10:59:10;;;;;;;6.03;1.67;;;;;;;15.74;57.29;99778.66;3617152;39;20043;-64
2022/11/16 11:01:56;;;;;;;8.68;1.92;;;;;;;15.79;58.29;99781.75;3616827;39;20050;-65
2022/11/16 11:04:28;;;;;;;7.20;2.25;;;;;;;16.19;58.80;99783.97;3615623;39;20042;-64
2022/11/16 11:07:19;;;;;;;5.60;1.70;;;;;;;16.34;56.16;99778.00;3617861;39;20275;-64
2022/11/16 11:09:52;;;;;;;6.43;2.13;;;;;;;16.43;56.37;99769.78;3616668;39;20066;-64
2022/11/16 11:12:40;;;;;;;6.53;1.63;;;;;;;16.41;55.67;99765.50;3618387;39;20062;-64
2022/11/16 11:15:22;;;;;;;9.88;1.60;;;;;;;16.27;55.90;99769.66;3606870;39;20045;-64
2022/11/16 11:18:08;;;;;;;5.00;1.73;;;;;;;15.83;56.51;99769.59;3616990;39;20124;-64
2022/11/16 11:20:34;;;;;;;9.23;2.05;;;;;;;15.48;58.06;99773.09;3615397;39;20145;-64
2022/11/16 11:23:20;;;;;;;5.25;1.88;;;;;;;15.17;58.78;99769.88;3618142;39;20058;-64
2022/11/16 11:26:04;;;;;;;7.22;2.15;;;;;;;14.95;59.68;99769.25;3615675;39;20051;-64
2022/11/16 11:28:35;;;;;;;6.38;1.70;;;;;;;14.78;60.93;99757.34;3615651;39;20104;-64
2022/11/16 11:31:38;;;;;;;6.75;1.90;;;;;;;14.68;61.09;99761.06;3619526;39;20396;-63
2022/11/16 11:34:16;;;;;;;6.10;1.70;;;;;;;14.50;61.80;99756.41;3614308;39;20058;-63
2022/11/16 11:36:54;;;;;;;8.68;2.08;;;;;;;14.31;61.98;99749.19;3616931;39;20120;-64
2022/11/16 11:39:19;;;;;;;6.75;1.75;;;;;;;14.21;62.27;99752.91;3615596;39;20046;-63
2022/11/16 11:42:13;;;;;;;9.00;2.10;;;;;;;14.09;62.61;99750.38;3615297;39;20060;-63
2022/11/16 11:44:43;;;;;;;6.85;1.75;;;;;;;13.98;63.09;99755.91;3613000;39;20050;-63
2022/11/16 11:47:47;;;;;;;8.82;1.92;;;;;;;13.86;63.75;99746.25;3620145;39;20055;-63
2022/11/16 11:50:51;;;;;;;9.73;2.05;;;;;;;13.86;63.69;99743.53;3618066;39;20075;-63
2022/11/16 11:53:38;;;;;;;9.13;1.70;;;;;;;13.90;63.46;99739.56;3615253;39;20057;-64
2022/11/16 11:56:04;;;;;;;6.60;1.88;;;;;;;14.22;64.54;99731.16;3615801;39;20112;-62
2022/11/16 11:58:36;;;;;;;6.07;1.52;;;;;;;14.99;61.84;99718.38;3615193;39;20686;-63
2022/11/16 12:01:47;;;;;;;4.07;1.17;;;;;;;15.74;58.96;99716.34;3615500;39;20087;-62
2022/11/16 12:05:09;;;;;;;8.77;1.70;;;;;;;16.52;57.27;99715.56;3615299;39;20086;-62
2022/11/16 12:08:29;;;;;;;9.02;2.03;;;;;;;16.65;54.44;99716.84;3618057;39;20086;-62
2022/11/16 12:11:05;;;;;;;12.38;6.22;;;;;;;16.52;54.46;99710.13;3615956;39;20059;-62
2022/11/16 12:13:51;;;;;;;5.22;1.38;;;;;;;16.56;54.98;99708.81;3615703;39;20047;-63
2022/11/16 12:16:54;;;;;;;7.18;1.63;;;;;;;16.92;53.60;99707.66;3616022;39;20050;-63
2022/11/16 12:19:57;;;;;;;6.22;1.60;;;;;;;17.32;53.21;99706.09;3617449;39;20051;-63
2022/11/16 12:22:50;;;;;;;5.78;1.20;;;;;;;17.75;52.16;99692.41;3603647;39;20062;-62
2022/11/16 12:25:33;;;;;;;4.25;1.52;;;;;;;18.10;51.01;99694.81;3615650;39;20046;-62
2022/11/16 12:28:52;;;;;;;7.95;2.05;;;;;;;18.31;50.02;99691.56;3616044;39;20047;-63
2022/11/16 12:32:16;;;;;;;9.05;1.70;;;;;;;18.38;50.43;99682.72;3615186;39;20047;-63
2022/11/16 12:35:20;;;;;;;5.53;1.60;;;;;;;17.82;49.71;99683.47;3615642;39;20064;-63
2022/11/16 12:38:26;;;;;;;6.50;1.60;;;;;;;17.58;50.94;99686.13;3596580;39;20047;-63
2022/11/16 12:41:36;;;;;;;4.20;1.50;;;;;;;17.57;50.79;99662.66;3615752;39;20051;-63
2022/11/16 12:44:58;;;;;;;4.43;1.40;;;;;;;17.21;51.88;99673.81;3616596;39;20054;-63
2022/11/16 12:48:10;;;;;;;5.35;1.63;;;;;;;17.61;51.16;99661.31;3606307;39;20416;-63
2022/11/16 12:51:21;;;;;;;4.82;1.40;;;;;;;18.10;51.13;99664.06;3613463;39;20104;-63